Skip to main content.

Nearby METAR Reports

 

KJYR - York, Nebraska, USA
Distance from station: NW 27mi, 43km
Updated: Sun, 24-Jan-2021 5:15am CST
Overcast
Overcast
 Wind from N
Wind: N 9 mph , 15 km/h, Gust: 15 mph , 24 km/h
Temperature: 27°F , -3°C
Wind Chill: 18°F , -8°C
Dew Point: 25°F , -4°C
Humidity: 93%
Barometer: 30.00 inHg , 1015.9 hPa
Clouds: Overcast
Visibility: 10 miles , 16 km
Cloud details: Overcast 1500 ft
2021/01/24 11:15 KJYR 241115Z AUTO 35008G13KT 10SM OVC015 M03/M04 A3000 RMK AO2
KLNK - Lincoln, Nebraska, USA
Distance from station: ENE 27mi, 44km
Updated: Sun, 24-Jan-2021 4:54am CST
Overcast
Overcast
 Wind from N
Wind: N 6 mph , 9 km/h
Temperature: 28°F , -2°C
Wind Chill: 21°F , -6°C
Dew Point: 25°F , -4°C
Humidity: 86%
Barometer: 30.00 inHg , 1015.9 hPa
Clouds: Overcast
Visibility: 9 miles , 14 km
Cloud details: Few Clouds 800 ft
Overcast 3900 ft
2021/01/24 10:54 KLNK 241054Z 36005KT 9SM FEW008 OVC039 M02/M04 A3000 RMK AO2 SLP173 T10221044
 
KBIE - Beatrice Municip, Nebraska, USA
Distance from station: SE 36mi, 58km
Updated: Sun, 24-Jan-2021 5:15am CST
Overcast
Overcast
 Wind from NNW
Wind: NNW 6 mph , 9 km/h
Temperature: 28°F , -2°C
Wind Chill: 21°F , -6°C
Dew Point: 27°F , -3°C
Humidity: 93%
Barometer: 29.99 inHg , 1015.6 hPa
Clouds: Overcast
Visibility: 10 miles , 16 km
Cloud details: Overcast 1900 ft
2021/01/24 11:15 KBIE 241115Z AUTO 34005KT 10SM OVC019 M02/M03 A2999 RMK AO2 T10181035
KHJH - Hebron Muni, Nebraska, USA
Distance from station: SSW 40mi, 64km
Updated: Sun, 24-Jan-2021 5:15am CST
Overcast
Overcast
 Wind from NNW
Wind: NNW 7 mph , 11 km/h
Temperature: 30°F , -1°C
Wind Chill: 23°F , -5°C
Dew Point: 27°F , -3°C
Humidity: 86%
Barometer: 30.00 inHg , 1015.9 hPa
Clouds: Overcast
Visibility: 10 miles , 16 km
Cloud details: Overcast 1400 ft
2021/01/24 11:15 KHJH 241115Z AUTO 34006KT 10SM OVC014 M01/M03 A3000 RMK AO2 T10151028
 
KAUH - Aurora, Nebraska, USA
Distance from station: WNW 44mi, 70km
Updated: Sun, 24-Jan-2021 5:15am CST
Overcast
Overcast
 Wind from N
Wind: N 14 mph , 22 km/h, Gust: 17 mph , 28 km/h
Temperature: 28°F , -2°C
Wind Chill: 17°F , -8°C
Dew Point: 25°F , -4°C
Humidity: 86%
Barometer: 30.01 inHg , 1016.3 hPa
Clouds: Overcast
Visibility: 10 miles , 16 km
Cloud details: Overcast 1000 ft
2021/01/24 11:15 KAUH 241115Z AUTO 36012G15KT 10SM OVC010 M02/M04 A3001 RMK AO2 T10221039
KAHQ - Wahoo, Nebraska, USA
Distance from station: NE 51mi, 82km
Updated: Sun, 24-Jan-2021 5:15am CST
Overcast
Overcast
 Wind from NNW
Wind: NNW 6 mph , 9 km/h
Temperature: 28°F , -2°C
Wind Chill: 21°F , -6°C
Dew Point: 28°F , -2°C
Humidity: 100%
Barometer: 30.00 inHg , 1015.9 hPa
Clouds: Overcast
Visibility: 10 miles , 16 km
Cloud details: Overcast 3300 ft
2021/01/24 11:15 KAHQ 241115Z AUTO 34005KT 10SM OVC033 M02/M02 A3000 RMK AO2 T10201020
 
KOLU - Columbus Muni, Nebraska, USA
Distance from station: N 55mi, 88km
Updated: Sun, 24-Jan-2021 4:56am CST
Overcast
Overcast
 
Temperature: 27°F , -3°C
Dew Point: 25°F , -4°C
Humidity: 93%
Barometer: 30.02 inHg , 1016.6 hPa
Clouds: Overcast
Visibility: 10 miles , 16 km
Cloud details: Overcast 1000 ft
2021/01/24 10:56 KOLU 241056Z AUTO 10SM OVC010 M03/M04 A3002 RMK AO2 SLP185 T10281039 FZRANO $
KGRI - Grand Island, Nebraska, USA
Distance from station: WNW 61mi, 99km
Updated: Sun, 24-Jan-2021 4:53am CST
Overcast
Overcast
 Wind from N
Wind: N 12 mph , 19 km/h
Temperature: 27°F , -3°C
Wind Chill: 16°F , -9°C
Dew Point: 21°F , -6°C
Humidity: 80%
Barometer: 30.01 inHg , 1016.3 hPa
Clouds: Overcast
Visibility: 10 miles , 16 km
Cloud details: Overcast 1200 ft
2021/01/24 10:53 KGRI 241053Z AUTO 35010KT 10SM OVC012 M03/M06 A3001 RMK AO2 SLP189 T10281056
 
KHSI - Hastings, Nebraska, USA
Distance from station: W 64mi, 103km
Updated: Sun, 24-Jan-2021 4:53am CST
Overcast
Overcast
 Wind from N
Wind: N 16 mph , 26 km/h
Temperature: 27°F , -3°C
Wind Chill: 15°F , -9°C
Dew Point: 23°F , -5°C
Humidity: 86%
Barometer: 30.00 inHg , 1015.9 hPa
Clouds: Overcast
Visibility: 10 miles , 16 km
Cloud details: Overcast 1200 ft
2021/01/24 10:53 KHSI 241053Z AUTO 36014KT 10SM OVC012 M03/M05 A3000 RMK AO2 SLP180 T10281050
KFET - Fremont Muni Arp, Nebraska, USA
Distance from station: NNE 66mi, 106km
Updated: Sun, 24-Jan-2021 5:15am CST
Overcast
Overcast
 Wind from NNW
Wind: NNW 3 mph , 6 km/h
Temperature: 28°F , -2°C
Dew Point: 27°F , -3°C
Humidity: 93%
Barometer: 30.01 inHg , 1016.3 hPa
Clouds: Overcast
Visibility: 7 miles , 11 km
Cloud details: Overcast 1400 ft
2021/01/24 11:15 KFET 241115Z AUTO 33003KT 7SM OVC014 M02/M03 A3001 RMK AO2 T10211033
 
KMLE - Omaha/Millard, Nebraska, USA
Distance from station: NE 69mi, 110km
Updated: Sun, 24-Jan-2021 5:15am CST
Overcast
Overcast
 Wind from NNW
Wind: NNW 6 mph , 9 km/h
Temperature: 30°F , -1°C
Wind Chill: 24°F , -4°C
Dew Point: 25°F , -4°C
Humidity: 80%
Barometer: 30.00 inHg , 1015.9 hPa
Clouds: Overcast
Visibility: 10 miles , 16 km
Cloud details: Overcast 2300 ft
2021/01/24 11:15 KMLE 241115Z AUTO 33005KT 10SM OVC023 M01/M04 A3000 RMK AO2 T10101045
KPMV - Plattsmouth Muni, Nebraska, USA
Distance from station: ENE 71mi, 114km
Updated: Sun, 24-Jan-2021 5:15am CST
Overcast
Overcast
 Wind from NNW
Wind: NNW 7 mph , 11 km/h
Temperature: 30°F , -1°C
Wind Chill: 23°F , -5°C
Dew Point: 23°F , -5°C
Humidity: 75%
Barometer: 29.98 inHg , 1015.2 hPa
Clouds: Overcast
Visibility: 10 miles , 16 km
Cloud details: Overcast 3800 ft
2021/01/24 11:15 KPMV 241115Z AUTO 34006KT 10SM OVC038 M01/M05 A2998 RMK AO2 T10151050
 
KAFK - Nebraska City, Nebraska, USA
Distance from station: E 72mi, 116km
Updated: Sun, 24-Jan-2021 5:15am CST
Overcast
Overcast
 Wind from N
Wind: N 8 mph , 13 km/h
Temperature: 32°F , 0°C
Wind Chill: 25°F , -4°C
Dew Point: 21°F , -6°C
Humidity: 64%
Barometer: 29.97 inHg , 1014.9 hPa
Clouds: Overcast
Visibility: 10 miles , 16 km
Cloud details: Overcast 3200 ft
2021/01/24 11:15 KAFK 241115Z AUTO 36007KT 10SM OVC032 00/M06 A2997 RMK AO2 T10011065
KOFF - Offutt Afb/Belle, Nebraska, USA
Distance from station: ENE 75mi, 121km
Updated: Wed, 20-Jan-2021 12:56pm CST
NOT Current
Clear
Clear
 Wind from WSW
Wind: WSW 14 mph , 22 km/h, Gust: 25 mph , 41 km/h
Temperature: 48°F , 9°C
Wind Chill: 42°F , 6°C
Dew Point: 27°F , -3°C
Humidity: 43%
Barometer: 29.86 inHg , 1011.2 hPa
Clouds: Clear
Visibility: 10 miles , 16 km
2021/01/20 18:56 KOFF 201856Z AUTO 24012G22KT 10SM CLR 09/M03 A2986 RMK AO2 PK WND 24031/09 SLP125 T00901029 $
 
KBTA - Blair Muni, Nebraska, USA
Distance from station: NE 78mi, 125km
Updated: Sun, 24-Jan-2021 5:15am CST
Overcast
Overcast
 Wind from N
Wind: N 7 mph , 11 km/h
Temperature: 27°F , -3°C
Wind Chill: 19°F , -7°C
Dew Point: 25°F , -4°C
Humidity: 93%
Barometer: 29.98 inHg , 1015.2 hPa
Clouds: Overcast
Visibility: 10 miles , 16 km
Cloud details: Mostly Cloudy 700 ft
Overcast 2600 ft
2021/01/24 11:15 KBTA 241115Z AUTO 36006KT 10SM BKN007 OVC026 M03/M04 A2998 RMK AO2 T10281040
KCNK - Concordia, Kansas, USA
Distance from station: SSW 80mi, 129km
Updated: Sun, 24-Jan-2021 4:55am CST
Overcast
Overcast
 Wind from N
Wind: N 9 mph , 15 km/h
Temperature: 30°F , -1°C
Wind Chill: 22°F , -6°C
Dew Point: 28°F , -2°C
Humidity: 93%
Barometer: 29.97 inHg , 1014.9 hPa
Clouds: Overcast
Visibility: 10 miles , 16 km
Cloud details: Mostly Cloudy 1000 ft
Overcast 3000 ft
2021/01/24 10:55 KCNK 241055Z AUTO 35008KT 10SM BKN010 OVC030 M01/M02 A2997 RMK AO2 CIG 006V012 SLP163 T10111022
 
KOMA - Omaha/Eppley, Nebraska, USA
Distance from station: NE 82mi, 133km
Updated: Sun, 24-Jan-2021 5:00am CST
Overcast
Overcast
 Wind from NNW
Wind: NNW 7 mph , 11 km/h
Temperature: 27°F , -3°C
Wind Chill: 19°F , -7°C
Dew Point: 25°F , -4°C
Humidity: 93%
Barometer: 29.99 inHg , 1015.6 hPa
Clouds: Overcast
Visibility: 10 miles , 16 km
Cloud details: Mostly Cloudy 2200 ft
Overcast 3500 ft
2021/01/24 11:00 KOMA 241100Z 34006KT 10SM BKN022 OVC035 M03/M04 A2999 RMK AO2 T10281044 $
KBVN - Albion Muni, Nebraska, USA
Distance from station: NNW 86mi, 138km
Updated: Sun, 24-Jan-2021 5:15am CST
Overcast
Overcast
 Wind from NNE
Wind: NNE 13 mph , 20 km/h, Gust: 20 mph , 31 km/h
Temperature: 27°F , -3°C
Wind Chill: 16°F , -9°C
Dew Point: 23°F , -5°C
Humidity: 86%
Barometer: 30.02 inHg , 1016.6 hPa
Clouds: Overcast
Visibility: 10 miles , 16 km
Cloud details: Overcast 1200 ft
2021/01/24 11:15 KBVN 241115Z AUTO 02011G17KT 10SM OVC012 M03/M05 A3002 RMK AO2 T10351055
 
KCBF - Council Bluffs, Iowa, USA
Distance from station: ENE 87mi, 139km
Updated: Sun, 24-Jan-2021 5:15am CST
Overcast
Overcast
 Wind from N
Wind: N 10 mph , 17 km/h
Temperature: 27°F , -3°C
Wind Chill: 18°F , -8°C
Dew Point: 23°F , -5°C
Humidity: 86%
Barometer: 29.97 inHg , 1014.9 hPa
Clouds: Overcast
Visibility: 10 miles , 16 km
Cloud details: Few Clouds 1200 ft
Few Clouds 2700 ft
Overcast 3300 ft
2021/01/24 11:15 KCBF 241115Z AUTO 36009KT 10SM FEW012 FEW027 OVC033 M03/M05 A2997 RMK AO2
KOFK - Norfolk, Nebraska, USA
Distance from station: N 92mi, 148km
Updated: Sun, 24-Jan-2021 4:56am CST
Overcast
Overcast
 Wind from N
Wind: N 15 mph , 24 km/h, Gust: 23 mph , 37 km/h
Temperature: 27°F , -3°C
Wind Chill: 15°F , -9°C
Dew Point: 21°F , -6°C
Humidity: 80%
Barometer: 30.00 inHg , 1015.9 hPa
Clouds: Overcast
Visibility: 10 miles , 16 km
Cloud details: Overcast 1100 ft
2021/01/24 10:56 KOFK 241056Z AUTO 35013G20KT 10SM OVC011 M03/M06 A3000 RMK AO2 SLP180 T10281056

Metar display script from Saratoga-Weather.org